sensor_id;sensor_type;location;lat;lon;timestamp;temperature;humidity
7016;DHT22;3548;48.402;9.990;2023-04-25T00:02:01;7.90;99.90
7016;DHT22;3548;48.402;9.990;2023-04-25T00:04:27;8.00;99.90
7016;DHT22;3548;48.402;9.990;2023-04-25T00:06:53;8.00;99.90
7016;DHT22;3548;48.402;9.990;2023-04-25T00:09:19;8.00;99.90
7016;DHT22;3548;48.402;9.990;2023-04-25T00:11:45;8.00;99.90
7016;DHT22;3548;48.402;9.990;2023-04-25T00:14:10;8.00;99.90
7016;DHT22;3548;48.402;9.990;2023-04-25T00:16:36;8.00;99.90
7016;DHT22;3548;48.402;9.990;2023-04-25T00:19:02;8.00;99.90
7016;DHT22;3548;48.402;9.990;2023-04-25T00:21:28;8.00;99.90
7016;DHT22;3548;48.402;9.990;2023-04-25T00:23:54;8.00;99.90
7016;DHT22;3548;48.402;9.990;2023-04-25T00:26:20;8.00;99.90
7016;DHT22;3548;48.402;9.990;2023-04-25T00:28:48;8.00;99.90
7016;DHT22;3548;48.402;9.990;2023-04-25T00:31:14;8.00;99.90
7016;DHT22;3548;48.402;9.990;2023-04-25T00:33:39;8.10;99.90
7016;DHT22;3548;48.402;9.990;2023-04-25T00:36:05;8.10;99.90
7016;DHT22;3548;48.402;9.990;2023-04-25T00:38:31;8.10;99.90
7016;DHT22;3548;48.402;9.990;2023-04-25T00:40:57;8.00;99.90
7016;DHT22;3548;48.402;9.990;2023-04-25T00:43:26;8.00;99.90
7016;DHT22;3548;48.402;9.990;2023-04-25T00:45:52;7.90;99.90
7016;DHT22;3548;48.402;9.990;2023-04-25T00:48:21;7.80;99.90
7016;DHT22;3548;48.402;9.990;2023-04-25T00:50:55;7.80;99.90
7016;DHT22;3548;48.402;9.990;2023-04-25T00:53:21;7.70;99.90
7016;DHT22;3548;48.402;9.990;2023-04-25T00:55:48;7.70;99.90
7016;DHT22;3548;48.402;9.990;2023-04-25T00:58:16;7.70;99.90
7016;DHT22;3548;48.402;9.990;2023-04-25T01:00:42;7.60;99.90
7016;DHT22;3548;48.402;9.990;2023-04-25T01:03:09;7.60;99.90
7016;DHT22;3548;48.402;9.990;2023-04-25T01:05:35;7.60;99.90
7016;DHT22;3548;48.402;9.990;2023-04-25T01:08:01;7.60;99.90
7016;DHT22;3548;48.402;9.990;2023-04-25T01:10:26;7.60;99.90
7016;DHT22;3548;48.402;9.990;2023-04-25T01:12:52;7.60;99.90
7016;DHT22;3548;48.402;9.990;2023-04-25T01:15:18;7.60;99.90
7016;DHT22;3548;48.402;9.990;2023-04-25T01:17:43;7.70;99.90
7016;DHT22;3548;48.402;9.990;2023-04-25T01:20:11;7.70;99.90
7016;DHT22;3548;48.402;9.990;2023-04-25T01:22:36;7.80;99.90
7016;DHT22;3548;48.402;9.990;2023-04-25T01:25:02;7.80;99.90
7016;DHT22;3548;48.402;9.990;2023-04-25T01:27:28;7.90;99.90
7016;DHT22;3548;48.402;9.990;2023-04-25T01:29:54;7.90;99.90
7016;DHT22;3548;48.402;9.990;2023-04-25T01:32:22;7.90;99.90
7016;DHT22;3548;48.402;9.990;2023-04-25T01:34:48;7.90;99.90
7016;DHT22;3548;48.402;9.990;2023-04-25T01:37:13;7.90;99.90
7016;DHT22;3548;48.402;9.990;2023-04-25T01:39:39;7.90;99.90
7016;DHT22;3548;48.402;9.990;2023-04-25T01:42:05;7.90;99.90
7016;DHT22;3548;48.402;9.990;2023-04-25T01:44:31;7.80;99.90
7016;DHT22;3548;48.402;9.990;2023-04-25T01:46:57;7.80;99.90
7016;DHT22;3548;48.402;9.990;2023-04-25T01:49:22;7.70;99.90
7016;DHT22;3548;48.402;9.990;2023-04-25T01:51:48;7.70;99.90
7016;DHT22;3548;48.402;9.990;2023-04-25T01:54:14;7.60;99.90
7016;DHT22;3548;48.402;9.990;2023-04-25T01:56:40;7.60;99.90
7016;DHT22;3548;48.402;9.990;2023-04-25T01:59:06;7.60;99.90
7016;DHT22;3548;48.402;9.990;2023-04-25T02:01:32;7.60;99.90
7016;DHT22;3548;48.402;9.990;2023-04-25T02:03:57;7.60;99.90
7016;DHT22;3548;48.402;9.990;2023-04-25T02:06:23;7.60;99.90
7016;DHT22;3548;48.402;9.990;2023-04-25T02:08:49;7.60;99.90
7016;DHT22;3548;48.402;9.990;2023-04-25T02:11:14;7.60;99.90
7016;DHT22;3548;48.402;9.990;2023-04-25T02:13:40;7.70;99.90
7016;DHT22;3548;48.402;9.990;2023-04-25T02:16:05;7.70;99.90
7016;DHT22;3548;48.402;9.990;2023-04-25T02:18:31;7.70;99.90
7016;DHT22;3548;48.402;9.990;2023-04-25T02:20:59;7.70;99.90
7016;DHT22;3548;48.402;9.990;2023-04-25T02:23:25;7.70;99.90
7016;DHT22;3548;48.402;9.990;2023-04-25T02:25:50;7.70;99.90
7016;DHT22;3548;48.402;9.990;2023-04-25T02:28:17;7.70;99.90
7016;DHT22;3548;48.402;9.990;2023-04-25T02:30:42;7.70;99.90
7016;DHT22;3548;48.402;9.990;2023-04-25T02:33:08;7.70;99.90
7016;DHT22;3548;48.402;9.990;2023-04-25T02:35:34;7.70;99.90
7016;DHT22;3548;48.402;9.990;2023-04-25T02:38:00;7.70;99.90
7016;DHT22;3548;48.402;9.990;2023-04-25T02:40:25;7.60;99.90
7016;DHT22;3548;48.402;9.990;2023-04-25T02:42:51;7.60;99.90
7016;DHT22;3548;48.402;9.990;2023-04-25T02:45:16;7.60;99.90
7016;DHT22;3548;48.402;9.990;2023-04-25T02:47:42;7.60;99.90
7016;DHT22;3548;48.402;9.990;2023-04-25T02:50:08;7.60;99.90
7016;DHT22;3548;48.402;9.990;2023-04-25T02:52:33;7.60;99.90
7016;DHT22;3548;48.402;9.990;2023-04-25T02:54:59;7.60;99.90
7016;DHT22;3548;48.402;9.990;2023-04-25T02:57:24;7.60;99.90
7016;DHT22;3548;48.402;9.990;2023-04-25T02:59:50;7.60;99.90
7016;DHT22;3548;48.402;9.990;2023-04-25T03:02:15;7.60;99.90
7016;DHT22;3548;48.402;9.990;2023-04-25T03:04:41;7.60;99.90
7016;DHT22;3548;48.402;9.990;2023-04-25T03:07:07;7.50;99.90
7016;DHT22;3548;48.402;9.990;2023-04-25T03:09:32;7.50;99.90
7016;DHT22;3548;48.402;9.990;2023-04-25T03:11:58;7.50;99.90
7016;DHT22;3548;48.402;9.990;2023-04-25T03:14:23;7.50;99.90
7016;DHT22;3548;48.402;9.990;2023-04-25T03:16:49;7.40;99.90
7016;DHT22;3548;48.402;9.990;2023-04-25T03:19:14;7.40;99.90
7016;DHT22;3548;48.402;9.990;2023-04-25T03:21:42;7.40;99.90
7016;DHT22;3548;48.402;9.990;2023-04-25T03:24:09;7.30;99.90
7016;DHT22;3548;48.402;9.990;2023-04-25T03:26:36;7.30;99.90
7016;DHT22;3548;48.402;9.990;2023-04-25T03:29:02;7.30;99.90
7016;DHT22;3548;48.402;9.990;2023-04-25T03:31:27;7.30;99.90
7016;DHT22;3548;48.402;9.990;2023-04-25T03:33:53;7.30;99.90
7016;DHT22;3548;48.402;9.990;2023-04-25T03:36:18;7.20;99.90
7016;DHT22;3548;48.402;9.990;2023-04-25T03:38:44;7.30;99.90
7016;DHT22;3548;48.402;9.990;2023-04-25T03:41:09;7.20;99.90
7016;DHT22;3548;48.402;9.990;2023-04-25T03:43:35;7.20;99.90
7016;DHT22;3548;48.402;9.990;2023-04-25T03:46:00;7.20;99.90
7016;DHT22;3548;48.402;9.990;2023-04-25T03:48:26;7.20;99.90
7016;DHT22;3548;48.402;9.990;2023-04-25T03:50:53;7.10;99.90
7016;DHT22;3548;48.402;9.990;2023-04-25T03:53:18;7.10;99.90
7016;DHT22;3548;48.402;9.990;2023-04-25T03:55:44;7.10;99.90
7016;DHT22;3548;48.402;9.990;2023-04-25T03:58:09;7.10;99.90
7016;DHT22;3548;48.402;9.990;2023-04-25T04:00:35;7.10;99.90
7016;DHT22;3548;48.402;9.990;2023-04-25T04:03:01;7.10;99.90
7016;DHT22;3548;48.402;9.990;2023-04-25T04:05:27;7.00;99.90
7016;DHT22;3548;48.402;9.990;2023-04-25T04:07:53;7.10;99.90
7016;DHT22;3548;48.402;9.990;2023-04-25T04:10:18;7.00;99.90
7016;DHT22;3548;48.402;9.990;2023-04-25T04:12:44;7.00;99.90
7016;DHT22;3548;48.402;9.990;2023-04-25T04:15:10;7.10;99.90
7016;DHT22;3548;48.402;9.990;2023-04-25T04:17:35;7.10;99.90
7016;DHT22;3548;48.402;9.990;2023-04-25T04:20:01;7.10;99.90
7016;DHT22;3548;48.402;9.990;2023-04-25T04:22:28;7.10;99.90
7016;DHT22;3548;48.402;9.990;2023-04-25T04:24:54;7.10;99.90
7016;DHT22;3548;48.402;9.990;2023-04-25T04:27:20;7.10;99.90
7016;DHT22;3548;48.402;9.990;2023-04-25T04:29:46;7.10;99.90
7016;DHT22;3548;48.402;9.990;2023-04-25T04:32:13;7.10;99.90
7016;DHT22;3548;48.402;9.990;2023-04-25T04:34:39;7.10;99.90
7016;DHT22;3548;48.402;9.990;2023-04-25T04:37:05;7.10;99.90
7016;DHT22;3548;48.402;9.990;2023-04-25T04:39:31;7.00;99.90
7016;DHT22;3548;48.402;9.990;2023-04-25T04:41:56;7.00;99.90
7016;DHT22;3548;48.402;9.990;2023-04-25T04:44:22;7.00;99.90
7016;DHT22;3548;48.402;9.990;2023-04-25T04:46:48;7.00;99.90
7016;DHT22;3548;48.402;9.990;2023-04-25T04:49:13;7.00;99.90
7016;DHT22;3548;48.402;9.990;2023-04-25T04:51:39;7.00;99.90
7016;DHT22;3548;48.402;9.990;2023-04-25T04:54:09;7.00;99.90
7016;DHT22;3548;48.402;9.990;2023-04-25T04:56:35;7.10;99.90
7016;DHT22;3548;48.402;9.990;2023-04-25T04:59:00;7.10;99.90
7016;DHT22;3548;48.402;9.990;2023-04-25T05:01:27;7.10;99.90
7016;DHT22;3548;48.402;9.990;2023-04-25T05:03:54;7.10;99.90
7016;DHT22;3548;48.402;9.990;2023-04-25T05:06:19;7.10;99.90
7016;DHT22;3548;48.402;9.990;2023-04-25T05:08:45;7.20;99.90
7016;DHT22;3548;48.402;9.990;2023-04-25T05:11:11;7.10;99.90
7016;DHT22;3548;48.402;9.990;2023-04-25T05:13:36;7.20;99.90
7016;DHT22;3548;48.402;9.990;2023-04-25T05:16:02;7.20;99.90
7016;DHT22;3548;48.402;9.990;2023-04-25T05:18:28;7.20;99.90
7016;DHT22;3548;48.402;9.990;2023-04-25T05:20:53;7.20;99.90
7016;DHT22;3548;48.402;9.990;2023-04-25T05:23:19;7.30;99.90
7016;DHT22;3548;48.402;9.990;2023-04-25T05:25:44;7.20;99.90
7016;DHT22;3548;48.402;9.990;2023-04-25T05:28:12;7.20;99.90
7016;DHT22;3548;48.402;9.990;2023-04-25T05:30:37;7.20;99.90
7016;DHT22;3548;48.402;9.990;2023-04-25T05:33:03;7.20;99.90
7016;DHT22;3548;48.402;9.990;2023-04-25T05:35:28;7.20;99.90
7016;DHT22;3548;48.402;9.990;2023-04-25T05:37:54;7.20;99.90
7016;DHT22;3548;48.402;9.990;2023-04-25T05:40:20;7.30;99.90
7016;DHT22;3548;48.402;9.990;2023-04-25T05:42:45;7.30;99.90
7016;DHT22;3548;48.402;9.990;2023-04-25T05:45:11;7.40;99.90
7016;DHT22;3548;48.402;9.990;2023-04-25T05:47:37;7.40;99.90
7016;DHT22;3548;48.402;9.990;2023-04-25T05:50:02;7.60;99.90
7016;DHT22;3548;48.402;9.990;2023-04-25T05:52:28;7.70;99.90
7016;DHT22;3548;48.402;9.990;2023-04-25T05:54:54;7.80;99.90
7016;DHT22;3548;48.402;9.990;2023-04-25T05:57:24;7.90;99.90
7016;DHT22;3548;48.402;9.990;2023-04-25T05:59:50;7.90;99.90
7016;DHT22;3548;48.402;9.990;2023-04-25T06:02:16;7.90;99.90
7016;DHT22;3548;48.402;9.990;2023-04-25T06:04:41;7.90;99.90
7016;DHT22;3548;48.402;9.990;2023-04-25T06:07:07;7.90;99.90
7016;DHT22;3548;48.402;9.990;2023-04-25T06:09:32;8.00;99.90
7016;DHT22;3548;48.402;9.990;2023-04-25T06:11:58;8.10;99.90
7016;DHT22;3548;48.402;9.990;2023-04-25T06:14:23;8.20;99.90
7016;DHT22;3548;48.402;9.990;2023-04-25T06:16:49;8.30;99.90
7016;DHT22;3548;48.402;9.990;2023-04-25T06:19:14;8.50;99.90
7016;DHT22;3548;48.402;9.990;2023-04-25T06:21:41;8.60;99.90
7016;DHT22;3548;48.402;9.990;2023-04-25T06:24:06;8.90;99.90
7016;DHT22;3548;48.402;9.990;2023-04-25T06:26:32;9.00;99.90
7016;DHT22;3548;48.402;9.990;2023-04-25T06:28:57;9.20;99.90
7016;DHT22;3548;48.402;9.990;2023-04-25T06:31:23;9.30;99.90
7016;DHT22;3548;48.402;9.990;2023-04-25T06:33:48;9.40;99.90
7016;DHT22;3548;48.402;9.990;2023-04-25T06:36:14;9.60;99.90
7016;DHT22;3548;48.402;9.990;2023-04-25T06:38:39;9.60;99.90
7016;DHT22;3548;48.402;9.990;2023-04-25T06:41:05;9.70;99.90
7016;DHT22;3548;48.402;9.990;2023-04-25T06:43:31;9.70;99.90
7016;DHT22;3548;48.402;9.990;2023-04-25T06:45:59;9.70;99.90
7016;DHT22;3548;48.402;9.990;2023-04-25T06:48:26;9.80;99.90
7016;DHT22;3548;48.402;9.990;2023-04-25T06:50:52;9.90;99.90
7016;DHT22;3548;48.402;9.990;2023-04-25T06:53:17;10.10;99.90
7016;DHT22;3548;48.402;9.990;2023-04-25T06:55:43;10.20;99.90
7016;DHT22;3548;48.402;9.990;2023-04-25T06:58:09;10.30;99.90
7016;DHT22;3548;48.402;9.990;2023-04-25T07:00:34;10.50;99.90
7016;DHT22;3548;48.402;9.990;2023-04-25T07:03:01;10.70;99.90
7016;DHT22;3548;48.402;9.990;2023-04-25T07:05:27;10.80;99.90
7016;DHT22;3548;48.402;9.990;2023-04-25T07:07:53;11.10;99.90
7016;DHT22;3548;48.402;9.990;2023-04-25T07:10:18;11.20;99.90
7016;DHT22;3548;48.402;9.990;2023-04-25T07:12:44;11.40;99.90
7016;DHT22;3548;48.402;9.990;2023-04-25T07:15:10;11.50;99.90
7016;DHT22;3548;48.402;9.990;2023-04-25T07:17:36;11.40;99.90
7016;DHT22;3548;48.402;9.990;2023-04-25T07:20:02;11.30;99.90
7016;DHT22;3548;48.402;9.990;2023-04-25T07:22:29;11.30;99.90
7016;DHT22;3548;48.402;9.990;2023-04-25T07:24:54;11.00;99.90
7016;DHT22;3548;48.402;9.990;2023-04-25T07:27:20;10.90;99.90
7016;DHT22;3548;48.402;9.990;2023-04-25T07:29:47;10.90;99.90
7016;DHT22;3548;48.402;9.990;2023-04-25T07:32:12;10.80;99.90
7016;DHT22;3548;48.402;9.990;2023-04-25T07:34:39;10.60;99.90
7016;DHT22;3548;48.402;9.990;2023-04-25T07:37:05;10.60;99.90
7016;DHT22;3548;48.402;9.990;2023-04-25T07:39:31;10.70;99.90
7016;DHT22;3548;48.402;9.990;2023-04-25T07:41:56;10.80;99.90
7016;DHT22;3548;48.402;9.990;2023-04-25T07:44:24;10.90;99.90
7016;DHT22;3548;48.402;9.990;2023-04-25T07:46:49;11.00;99.90
7016;DHT22;3548;48.402;9.990;2023-04-25T07:49:15;10.90;99.90
7016;DHT22;3548;48.402;9.990;2023-04-25T07:51:41;11.00;99.90
7016;DHT22;3548;48.402;9.990;2023-04-25T07:54:09;11.00;99.90
7016;DHT22;3548;48.402;9.990;2023-04-25T07:56:34;11.10;99.90
7016;DHT22;3548;48.402;9.990;2023-04-25T07:59:00;11.10;99.90
7016;DHT22;3548;48.402;9.990;2023-04-25T08:01:26;11.10;99.90
7016;DHT22;3548;48.402;9.990;2023-04-25T08:03:52;11.00;99.90
7016;DHT22;3548;48.402;9.990;2023-04-25T08:06:18;10.90;99.90
7016;DHT22;3548;48.402;9.990;2023-04-25T08:08:43;10.80;99.90
7016;DHT22;3548;48.402;9.990;2023-04-25T08:11:09;10.60;99.90
7016;DHT22;3548;48.402;9.990;2023-04-25T08:13:35;10.40;99.90
7016;DHT22;3548;48.402;9.990;2023-04-25T08:16:01;10.40;99.90
7016;DHT22;3548;48.402;9.990;2023-04-25T08:18:26;10.50;99.90
7016;DHT22;3548;48.402;9.990;2023-04-25T08:20:52;10.60;99.90
7016;DHT22;3548;48.402;9.990;2023-04-25T08:23:17;10.80;99.90
7016;DHT22;3548;48.402;9.990;2023-04-25T08:25:43;11.00;99.90
7016;DHT22;3548;48.402;9.990;2023-04-25T08:28:09;11.10;99.90
7016;DHT22;3548;48.402;9.990;2023-04-25T08:30:34;11.10;99.90
7016;DHT22;3548;48.402;9.990;2023-04-25T08:33:00;11.30;99.90
7016;DHT22;3548;48.402;9.990;2023-04-25T08:35:25;11.30;99.90
7016;DHT22;3548;48.402;9.990;2023-04-25T08:37:51;11.30;99.90
7016;DHT22;3548;48.402;9.990;2023-04-25T08:40:17;11.30;99.40
7016;DHT22;3548;48.402;9.990;2023-04-25T08:42:42;11.30;99.70
7016;DHT22;3548;48.402;9.990;2023-04-25T08:45:09;11.30;99.40
7016;DHT22;3548;48.402;9.990;2023-04-25T08:47:38;11.30;99.90
7016;DHT22;3548;48.402;9.990;2023-04-25T08:50:04;11.30;99.90
7016;DHT22;3548;48.402;9.990;2023-04-25T08:52:43;11.30;99.90
7016;DHT22;3548;48.402;9.990;2023-04-25T08:55:12;11.30;99.90
7016;DHT22;3548;48.402;9.990;2023-04-25T08:57:38;11.30;99.90
7016;DHT22;3548;48.402;9.990;2023-04-25T09:00:05;11.10;99.90
7016;DHT22;3548;48.402;9.990;2023-04-25T09:02:31;11.00;99.90
7016;DHT22;3548;48.402;9.990;2023-04-25T09:04:57;11.00;99.90
7016;DHT22;3548;48.402;9.990;2023-04-25T09:07:22;11.00;99.90
7016;DHT22;3548;48.402;9.990;2023-04-25T09:09:48;10.90;99.90
7016;DHT22;3548;48.402;9.990;2023-04-25T09:12:13;10.90;99.90
7016;DHT22;3548;48.402;9.990;2023-04-25T09:14:39;10.90;99.90
7016;DHT22;3548;48.402;9.990;2023-04-25T09:17:05;10.90;99.90
7016;DHT22;3548;48.402;9.990;2023-04-25T09:19:34;11.00;99.90
7016;DHT22;3548;48.402;9.990;2023-04-25T09:22:02;11.00;99.90
7016;DHT22;3548;48.402;9.990;2023-04-25T09:27:09;11.00;99.90
7016;DHT22;3548;48.402;9.990;2023-04-25T09:29:37;11.10;99.90
7016;DHT22;3548;48.402;9.990;2023-04-25T09:32:23;11.10;99.90
7016;DHT22;3548;48.402;9.990;2023-04-25T09:34:56;11.10;99.90
7016;DHT22;3548;48.402;9.990;2023-04-25T09:37:29;11.10;99.90
7016;DHT22;3548;48.402;9.990;2023-04-25T09:39:56;11.00;99.90
7016;DHT22;3548;48.402;9.990;2023-04-25T09:42:25;10.80;99.90
7016;DHT22;3548;48.402;9.990;2023-04-25T09:44:54;10.60;99.90
7016;DHT22;3548;48.402;9.990;2023-04-25T09:47:23;10.20;99.90
7016;DHT22;3548;48.402;9.990;2023-04-25T09:49:49;9.50;99.90
7016;DHT22;3548;48.402;9.990;2023-04-25T09:52:23;8.80;99.90
7016;DHT22;3548;48.402;9.990;2023-04-25T09:54:49;8.40;99.90
7016;DHT22;3548;48.402;9.990;2023-04-25T09:57:23;8.10;99.90
7016;DHT22;3548;48.402;9.990;2023-04-25T09:59:53;8.00;99.90
7016;DHT22;3548;48.402;9.990;2023-04-25T10:02:20;7.90;99.90
7016;DHT22;3548;48.402;9.990;2023-04-25T10:04:50;7.70;99.90
7016;DHT22;3548;48.402;9.990;2023-04-25T10:07:19;7.60;99.90
7016;DHT22;3548;48.402;9.990;2023-04-25T10:09:48;7.50;99.90
7016;DHT22;3548;48.402;9.990;2023-04-25T10:12:16;7.50;99.90
7016;DHT22;3548;48.402;9.990;2023-04-25T10:14:42;7.50;99.90
7016;DHT22;3548;48.402;9.990;2023-04-25T10:17:10;7.50;99.90
7016;DHT22;3548;48.402;9.990;2023-04-25T10:19:35;7.60;99.90
7016;DHT22;3548;48.402;9.990;2023-04-25T10:22:13;7.60;99.90
7016;DHT22;3548;48.402;9.990;2023-04-25T10:24:40;7.70;99.90
7016;DHT22;3548;48.402;9.990;2023-04-25T10:27:06;7.90;99.90
7016;DHT22;3548;48.402;9.990;2023-04-25T10:29:32;7.90;99.90
7016;DHT22;3548;48.402;9.990;2023-04-25T10:31:58;7.90;99.90
7016;DHT22;3548;48.402;9.990;2023-04-25T10:34:25;7.90;99.90
7016;DHT22;3548;48.402;9.990;2023-04-25T10:37:02;7.80;99.90
7016;DHT22;3548;48.402;9.990;2023-04-25T10:39:28;7.70;99.90
7016;DHT22;3548;48.402;9.990;2023-04-25T10:41:58;7.60;99.90
7016;DHT22;3548;48.402;9.990;2023-04-25T10:44:28;7.60;99.90
7016;DHT22;3548;48.402;9.990;2023-04-25T10:47:01;7.60;99.90
7016;DHT22;3548;48.402;9.990;2023-04-25T10:49:36;7.70;99.90
7016;DHT22;3548;48.402;9.990;2023-04-25T10:54:53;7.70;99.90
7016;DHT22;3548;48.402;9.990;2023-04-25T11:00:17;7.90;99.90
7016;DHT22;3548;48.402;9.990;2023-04-25T11:02:47;8.10;99.90
7016;DHT22;3548;48.402;9.990;2023-04-25T11:05:24;8.20;99.90
7016;DHT22;3548;48.402;9.990;2023-04-25T11:07:55;8.40;99.90
7016;DHT22;3548;48.402;9.990;2023-04-25T11:12:52;8.60;99.90
7016;DHT22;3548;48.402;9.990;2023-04-25T11:15:17;8.80;99.90
7016;DHT22;3548;48.402;9.990;2023-04-25T11:17:43;9.00;99.90
7016;DHT22;3548;48.402;9.990;2023-04-25T11:20:11;9.20;99.90
7016;DHT22;3548;48.402;9.990;2023-04-25T11:22:40;9.30;99.90
7016;DHT22;3548;48.402;9.990;2023-04-25T11:25:10;9.40;99.90
7016;DHT22;3548;48.402;9.990;2023-04-25T11:27:49;9.40;99.90
7016;DHT22;3548;48.402;9.990;2023-04-25T11:30:16;9.40;99.90
7016;DHT22;3548;48.402;9.990;2023-04-25T11:32:42;9.30;99.90
7016;DHT22;3548;48.402;9.990;2023-04-25T11:35:10;9.30;99.90
7016;DHT22;3548;48.402;9.990;2023-04-25T11:37:38;9.20;99.90
7016;DHT22;3548;48.402;9.990;2023-04-25T11:40:05;9.10;99.90
7016;DHT22;3548;48.402;9.990;2023-04-25T11:42:32;9.00;99.90
7016;DHT22;3548;48.402;9.990;2023-04-25T11:44:58;8.90;99.90
7016;DHT22;3548;48.402;9.990;2023-04-25T11:47:31;8.70;99.90
7016;DHT22;3548;48.402;9.990;2023-04-25T11:49:58;8.70;99.90
7016;DHT22;3548;48.402;9.990;2023-04-25T11:52:34;8.80;99.90
7016;DHT22;3548;48.402;9.990;2023-04-25T11:55:00;8.90;99.90
7016;DHT22;3548;48.402;9.990;2023-04-25T11:57:25;8.90;99.90
7016;DHT22;3548;48.402;9.990;2023-04-25T11:59:51;8.80;99.90
7016;DHT22;3548;48.402;9.990;2023-04-25T12:02:26;8.80;99.90
7016;DHT22;3548;48.402;9.990;2023-04-25T12:04:51;8.70;99.90
7016;DHT22;3548;48.402;9.990;2023-04-25T12:07:17;8.70;99.90
7016;DHT22;3548;48.402;9.990;2023-04-25T12:09:52;8.60;99.90
7016;DHT22;3548;48.402;9.990;2023-04-25T12:12:18;8.60;99.90
7016;DHT22;3548;48.402;9.990;2023-04-25T12:14:47;8.70;99.90
7016;DHT22;3548;48.402;9.990;2023-04-25T12:17:16;8.80;99.90
7016;DHT22;3548;48.402;9.990;2023-04-25T12:19:42;8.90;99.90
7016;DHT22;3548;48.402;9.990;2023-04-25T12:22:23;9.00;99.90
7016;DHT22;3548;48.402;9.990;2023-04-25T12:24:49;9.00;99.90
7016;DHT22;3548;48.402;9.990;2023-04-25T12:27:16;8.90;99.90
7016;DHT22;3548;48.402;9.990;2023-04-25T12:29:54;8.80;99.90
7016;DHT22;3548;48.402;9.990;2023-04-25T12:32:20;8.80;99.90
7016;DHT22;3548;48.402;9.990;2023-04-25T12:34:46;8.60;99.90
7016;DHT22;3548;48.402;9.990;2023-04-25T12:37:11;8.50;99.90
7016;DHT22;3548;48.402;9.990;2023-04-25T12:39:37;8.50;99.90
7016;DHT22;3548;48.402;9.990;2023-04-25T12:42:03;8.50;99.90
7016;DHT22;3548;48.402;9.990;2023-04-25T12:44:28;8.40;99.90
7016;DHT22;3548;48.402;9.990;2023-04-25T12:46:54;8.50;99.90
7016;DHT22;3548;48.402;9.990;2023-04-25T12:49:20;8.50;99.90
7016;DHT22;3548;48.402;9.990;2023-04-25T12:51:45;8.50;99.90
7016;DHT22;3548;48.402;9.990;2023-04-25T12:54:12;8.50;99.90
7016;DHT22;3548;48.402;9.990;2023-04-25T12:56:37;8.40;99.90
7016;DHT22;3548;48.402;9.990;2023-04-25T12:59:03;8.30;99.90
7016;DHT22;3548;48.402;9.990;2023-04-25T13:01:29;8.30;99.90
7016;DHT22;3548;48.402;9.990;2023-04-25T13:03:55;8.20;99.90
7016;DHT22;3548;48.402;9.990;2023-04-25T13:06:21;8.20;99.90
7016;DHT22;3548;48.402;9.990;2023-04-25T13:08:47;8.30;99.90
7016;DHT22;3548;48.402;9.990;2023-04-25T13:11:13;8.30;99.90
7016;DHT22;3548;48.402;9.990;2023-04-25T13:13:40;8.30;99.90
7016;DHT22;3548;48.402;9.990;2023-04-25T13:16:06;8.30;99.90
7016;DHT22;3548;48.402;9.990;2023-04-25T13:18:32;8.40;99.90
7016;DHT22;3548;48.402;9.990;2023-04-25T13:20:58;8.50;99.90
7016;DHT22;3548;48.402;9.990;2023-04-25T13:23:26;8.60;99.90
7016;DHT22;3548;48.402;9.990;2023-04-25T13:25:52;8.70;99.90
7016;DHT22;3548;48.402;9.990;2023-04-25T13:28:17;8.60;99.90
7016;DHT22;3548;48.402;9.990;2023-04-25T13:30:44;8.60;99.90
7016;DHT22;3548;48.402;9.990;2023-04-25T13:33:09;8.50;99.90
7016;DHT22;3548;48.402;9.990;2023-04-25T13:35:37;8.60;99.90
7016;DHT22;3548;48.402;9.990;2023-04-25T13:38:03;8.80;99.90
7016;DHT22;3548;48.402;9.990;2023-04-25T13:40:29;8.80;99.90
7016;DHT22;3548;48.402;9.990;2023-04-25T13:42:55;8.80;99.90
7016;DHT22;3548;48.402;9.990;2023-04-25T13:45:21;8.60;99.90
7016;DHT22;3548;48.402;9.990;2023-04-25T13:47:47;8.50;99.90
7016;DHT22;3548;48.402;9.990;2023-04-25T13:50:12;8.50;99.90
7016;DHT22;3548;48.402;9.990;2023-04-25T13:52:39;8.50;99.90
7016;DHT22;3548;48.402;9.990;2023-04-25T13:55:05;8.50;99.90
7016;DHT22;3548;48.402;9.990;2023-04-25T13:57:32;8.80;99.90
7016;DHT22;3548;48.402;9.990;2023-04-25T13:59:58;9.00;99.90
7016;DHT22;3548;48.402;9.990;2023-04-25T14:02:24;8.90;99.90
7016;DHT22;3548;48.402;9.990;2023-04-25T14:04:50;8.80;99.90
7016;DHT22;3548;48.402;9.990;2023-04-25T14:07:15;8.70;99.90
7016;DHT22;3548;48.402;9.990;2023-04-25T14:09:41;8.70;99.90
7016;DHT22;3548;48.402;9.990;2023-04-25T14:12:07;8.60;99.90
7016;DHT22;3548;48.402;9.990;2023-04-25T14:14:33;8.70;99.90
7016;DHT22;3548;48.402;9.990;2023-04-25T14:16:58;8.80;99.90
7016;DHT22;3548;48.402;9.990;2023-04-25T14:19:24;8.80;99.90
7016;DHT22;3548;48.402;9.990;2023-04-25T14:21:50;9.00;99.90
7016;DHT22;3548;48.402;9.990;2023-04-25T14:24:15;9.00;99.90
7016;DHT22;3548;48.402;9.990;2023-04-25T14:26:41;9.20;99.90
7016;DHT22;3548;48.402;9.990;2023-04-25T14:29:08;9.30;99.90
7016;DHT22;3548;48.402;9.990;2023-04-25T14:31:34;9.60;99.90
7016;DHT22;3548;48.402;9.990;2023-04-25T14:34:01;9.80;99.90
7016;DHT22;3548;48.402;9.990;2023-04-25T14:36:28;10.10;99.90
7016;DHT22;3548;48.402;9.990;2023-04-25T14:38:53;10.30;99.90
7016;DHT22;3548;48.402;9.990;2023-04-25T14:41:19;10.40;99.90
7016;DHT22;3548;48.402;9.990;2023-04-25T14:43:44;10.60;99.90
7016;DHT22;3548;48.402;9.990;2023-04-25T14:46:11;10.70;99.90
7016;DHT22;3548;48.402;9.990;2023-04-25T14:48:36;10.80;99.90
7016;DHT22;3548;48.402;9.990;2023-04-25T14:51:02;10.90;99.90
7016;DHT22;3548;48.402;9.990;2023-04-25T14:53:28;11.00;99.90
7016;DHT22;3548;48.402;9.990;2023-04-25T14:55:54;10.90;99.10
7016;DHT22;3548;48.402;9.990;2023-04-25T14:58:20;10.70;99.90
7016;DHT22;3548;48.402;9.990;2023-04-25T15:00:46;10.60;99.90
7016;DHT22;3548;48.402;9.990;2023-04-25T15:03:12;10.60;99.90
7016;DHT22;3548;48.402;9.990;2023-04-25T15:05:39;10.60;99.90
7016;DHT22;3548;48.402;9.990;2023-04-25T15:08:05;10.60;99.90
7016;DHT22;3548;48.402;9.990;2023-04-25T15:10:30;10.60;99.90
7016;DHT22;3548;48.402;9.990;2023-04-25T15:12:56;10.70;99.90
7016;DHT22;3548;48.402;9.990;2023-04-25T15:15:22;10.70;99.90
7016;DHT22;3548;48.402;9.990;2023-04-25T15:17:49;10.60;99.90
7016;DHT22;3548;48.402;9.990;2023-04-25T15:20:15;10.60;99.90
7016;DHT22;3548;48.402;9.990;2023-04-25T15:22:43;10.60;99.90
7016;DHT22;3548;48.402;9.990;2023-04-25T15:25:09;10.70;99.90
7016;DHT22;3548;48.402;9.990;2023-04-25T15:27:39;10.90;99.90
7016;DHT22;3548;48.402;9.990;2023-04-25T15:30:11;11.10;99.90
7016;DHT22;3548;48.402;9.990;2023-04-25T15:32:38;11.30;99.00
7016;DHT22;3548;48.402;9.990;2023-04-25T15:35:05;11.20;99.20
7016;DHT22;3548;48.402;9.990;2023-04-25T15:37:32;11.20;99.80
7016;DHT22;3548;48.402;9.990;2023-04-25T15:40:08;11.00;99.60
7016;DHT22;3548;48.402;9.990;2023-04-25T15:42:41;10.90;99.90
7016;DHT22;3548;48.402;9.990;2023-04-25T15:45:08;10.80;99.90
7016;DHT22;3548;48.402;9.990;2023-04-25T15:47:35;10.70;99.90
7016;DHT22;3548;48.402;9.990;2023-04-25T15:50:01;10.60;99.90
7016;DHT22;3548;48.402;9.990;2023-04-25T15:52:27;10.70;99.90
7016;DHT22;3548;48.402;9.990;2023-04-25T15:54:52;10.70;99.90
7016;DHT22;3548;48.402;9.990;2023-04-25T15:57:19;10.70;99.90
7016;DHT22;3548;48.402;9.990;2023-04-25T15:59:44;10.50;99.00
7016;DHT22;3548;48.402;9.990;2023-04-25T16:02:12;10.30;99.30
7016;DHT22;3548;48.402;9.990;2023-04-25T16:04:38;10.20;99.80
7016;DHT22;3548;48.402;9.990;2023-04-25T16:07:04;10.20;99.90
7016;DHT22;3548;48.402;9.990;2023-04-25T16:09:30;10.40;99.90
7016;DHT22;3548;48.402;9.990;2023-04-25T16:11:56;10.50;99.90
7016;DHT22;3548;48.402;9.990;2023-04-25T16:14:21;10.60;99.90
7016;DHT22;3548;48.402;9.990;2023-04-25T16:16:47;10.50;99.90
7016;DHT22;3548;48.402;9.990;2023-04-25T16:19:12;10.30;99.40